createdAt,value
2018-08-30T00:00:27.274Z,15.20
2018-08-30T00:02:56.237Z,15.20
2018-08-30T00:05:25.253Z,15.20
2018-08-30T00:07:54.246Z,15.20
2018-08-30T00:10:23.248Z,15.20
2018-08-30T00:12:52.250Z,15.20
2018-08-30T00:15:21.210Z,15.20
2018-08-30T00:17:50.158Z,15.20
2018-08-30T00:20:19.101Z,15.20
2018-08-30T00:22:48.074Z,15.30
2018-08-30T00:25:17.086Z,15.40
2018-08-30T00:27:46.087Z,15.40
2018-08-30T00:30:15.065Z,15.30
2018-08-30T00:32:44.042Z,15.30
2018-08-30T00:35:12.997Z,15.40
2018-08-30T00:37:41.966Z,15.40
2018-08-30T00:40:11.177Z,15.40
2018-08-30T00:42:40.173Z,15.40
2018-08-30T00:45:09.115Z,15.40
2018-08-30T00:47:38.114Z,15.40
2018-08-30T00:50:07.062Z,15.40
2018-08-30T00:52:36.131Z,15.40
2018-08-30T00:55:05.181Z,15.40
2018-08-30T00:57:34.088Z,15.40
2018-08-30T01:00:03.095Z,15.40
2018-08-30T01:02:32.092Z,15.40
2018-08-30T01:05:01.006Z,15.40
2018-08-30T01:07:29.955Z,15.40
2018-08-30T01:09:58.902Z,15.40
2018-08-30T01:12:27.863Z,15.40
2018-08-30T01:14:56.849Z,15.40
2018-08-30T01:17:25.817Z,15.40
2018-08-30T01:19:54.775Z,15.40
2018-08-30T01:22:23.713Z,15.40
2018-08-30T01:24:52.657Z,15.40
2018-08-30T01:27:21.623Z,15.40
2018-08-30T01:29:50.551Z,15.30
2018-08-30T01:32:19.506Z,15.30
2018-08-30T01:34:48.499Z,15.40
2018-08-30T01:37:17.494Z,15.40
2018-08-30T01:39:46.435Z,15.40
2018-08-30T01:42:15.361Z,15.40
2018-08-30T01:44:44.401Z,15.40
2018-08-30T01:47:13.363Z,15.50
2018-08-30T01:49:42.429Z,15.50
2018-08-30T01:52:11.678Z,15.50
2018-08-30T01:54:40.705Z,15.50
2018-08-30T01:57:09.641Z,15.50
2018-08-30T01:59:38.598Z,15.50
2018-08-30T02:02:07.545Z,15.50
2018-08-30T02:04:36.494Z,15.50
2018-08-30T02:07:05.495Z,15.50
2018-08-30T02:09:34.425Z,15.40
2018-08-30T02:12:03.367Z,15.40
2018-08-30T02:14:32.390Z,15.50
2018-08-30T02:17:01.497Z,15.50
2018-08-30T02:19:30.473Z,15.50
2018-08-30T02:21:59.485Z,15.40
2018-08-30T02:24:28.436Z,15.40
2018-08-30T02:26:57.392Z,15.40
2018-08-30T02:29:26.331Z,15.50
2018-08-30T02:31:55.348Z,15.40
2018-08-30T02:34:24.269Z,15.50
2018-08-30T02:36:53.235Z,15.50
2018-08-30T02:39:22.207Z,15.50
2018-08-30T02:41:51.196Z,15.50
2018-08-30T02:44:20.227Z,15.50
2018-08-30T02:46:49.216Z,15.50
2018-08-30T02:49:18.194Z,15.50
2018-08-30T02:51:47.200Z,15.50
2018-08-30T02:54:16.169Z,15.50
2018-08-30T02:56:45.325Z,15.50
2018-08-30T02:59:14.374Z,15.50
2018-08-30T03:01:43.348Z,15.50
2018-08-30T03:04:12.354Z,15.50
2018-08-30T03:06:41.358Z,15.50
2018-08-30T03:09:10.592Z,15.50
2018-08-30T03:11:39.521Z,15.50
2018-08-30T03:14:08.483Z,15.50
2018-08-30T03:16:37.525Z,15.50
2018-08-30T03:19:06.483Z,15.50
2018-08-30T03:21:35.544Z,15.40
2018-08-30T03:24:04.562Z,15.50
2018-08-30T03:26:33.642Z,15.50
2018-08-30T03:29:02.581Z,15.50
2018-08-30T03:31:31.602Z,15.50
2018-08-30T03:34:00.522Z,15.50
2018-08-30T03:36:29.472Z,15.40
2018-08-30T03:38:58.495Z,15.40
2018-08-30T03:41:27.484Z,15.40
2018-08-30T03:43:56.463Z,15.30
2018-08-30T03:46:25.434Z,15.30
2018-08-30T03:48:54.382Z,15.30
2018-08-30T03:51:23.329Z,15.40
2018-08-30T03:53:52.298Z,15.40
2018-08-30T03:56:21.330Z,15.40
2018-08-30T03:58:50.342Z,15.40
2018-08-30T04:01:20.350Z,15.40
2018-08-30T04:03:49.350Z,15.50
2018-08-30T04:06:18.270Z,15.40
2018-08-30T04:08:47.231Z,15.40
2018-08-30T04:11:16.128Z,15.40
2018-08-30T04:13:45.087Z,15.40
2018-08-30T04:16:14.087Z,15.40
2018-08-30T04:18:43.092Z,15.40
2018-08-30T04:21:12.090Z,15.40
2018-08-30T04:23:41.357Z,15.40
2018-08-30T04:26:10.406Z,15.40
2018-08-30T04:28:39.393Z,15.40
2018-08-30T04:31:08.486Z,15.40
2018-08-30T04:33:37.426Z,15.40
2018-08-30T04:36:06.485Z,15.40
2018-08-30T04:38:35.427Z,15.40
2018-08-30T04:41:04.444Z,15.30
2018-08-30T04:43:33.441Z,15.30
2018-08-30T04:46:02.436Z,15.30
2018-08-30T04:48:31.370Z,15.40
2018-08-30T04:51:00.398Z,15.40
2018-08-30T04:53:29.338Z,15.40
2018-08-30T04:55:58.283Z,15.40
2018-08-30T04:58:27.303Z,15.40
2018-08-30T05:00:56.274Z,15.40
2018-08-30T05:03:25.233Z,15.40
2018-08-30T05:05:54.310Z,15.40
2018-08-30T05:08:23.852Z,15.40
2018-08-30T05:10:52.885Z,15.40
2018-08-30T05:13:21.968Z,15.40
2018-08-30T05:15:51.078Z,15.40
2018-08-30T05:18:20.304Z,15.40
2018-08-30T05:20:49.594Z,15.50
2018-08-30T05:23:18.570Z,15.40
2018-08-30T05:25:47.554Z,15.40
2018-08-30T05:28:16.491Z,15.50
2018-08-30T05:30:45.430Z,15.40
2018-08-30T05:33:14.365Z,15.40
2018-08-30T05:35:43.373Z,15.40
2018-08-30T05:38:12.374Z,15.40
2018-08-30T05:40:41.448Z,15.40
2018-08-30T05:43:10.425Z,15.40
2018-08-30T05:45:39.355Z,15.50
2018-08-30T05:48:08.389Z,15.40
2018-08-30T05:50:37.374Z,15.50
2018-08-30T05:53:06.383Z,15.50
2018-08-30T05:55:35.445Z,15.60
2018-08-30T05:58:04.451Z,15.60
2018-08-30T06:00:33.448Z,15.60
2018-08-30T06:03:02.437Z,15.60
2018-08-30T06:05:31.371Z,15.60
2018-08-30T06:08:00.369Z,15.60
2018-08-30T06:10:29.279Z,15.60
2018-08-30T06:12:58.271Z,15.60
2018-08-30T06:15:27.181Z,15.60
2018-08-30T06:17:56.259Z,15.60
2018-08-30T06:20:25.210Z,15.60
2018-08-30T06:22:54.311Z,15.70
2018-08-30T06:25:23.556Z,15.80
2018-08-30T06:27:52.566Z,15.90
2018-08-30T06:30:21.479Z,16.10
2018-08-30T06:32:50.518Z,16.20
2018-08-30T06:35:19.456Z,16.30
2018-08-30T06:37:48.456Z,16.30
2018-08-30T06:40:17.442Z,16.40
2018-08-30T06:42:46.465Z,16.40
2018-08-30T06:45:15.441Z,16.50
2018-08-30T06:47:44.414Z,16.60
2018-08-30T06:50:13.418Z,16.70
2018-08-30T06:52:42.429Z,16.70
2018-08-30T06:55:11.411Z,16.80
2018-08-30T06:57:40.522Z,16.80
2018-08-30T07:00:09.545Z,16.90
2018-08-30T07:02:38.482Z,16.90
2018-08-30T07:05:07.543Z,17.00
2018-08-30T07:07:36.478Z,17.10
2018-08-30T07:10:06.135Z,17.20
2018-08-30T07:12:35.086Z,17.20
2018-08-30T07:15:04.110Z,17.20
2018-08-30T07:17:33.074Z,17.20
2018-08-30T07:20:02.070Z,17.20
2018-08-30T07:22:31.083Z,17.20
2018-08-30T07:25:00.060Z,17.40
2018-08-30T07:27:29.093Z,17.50
2018-08-30T07:29:58.041Z,17.70
2018-08-30T07:32:26.961Z,17.80
2018-08-30T07:34:56.117Z,17.90
2018-08-30T07:37:24.925Z,17.80
2018-08-30T07:39:53.905Z,17.70
2018-08-30T07:42:22.827Z,17.90
2018-08-30T07:44:51.785Z,18.00
2018-08-30T07:47:20.913Z,18.20
2018-08-30T07:49:49.807Z,18.30
2018-08-30T07:52:18.803Z,18.30
2018-08-30T07:54:47.778Z,18.30
2018-08-30T07:57:16.797Z,18.20
2018-08-30T07:59:45.801Z,18.20
2018-08-30T08:02:14.735Z,18.10
2018-08-30T08:04:43.730Z,18.20
2018-08-30T08:07:12.828Z,18.20
2018-08-30T08:09:41.735Z,18.20
2018-08-30T08:12:10.720Z,18.30
2018-08-30T08:14:39.727Z,18.40
2018-08-30T08:17:08.731Z,18.40
2018-08-30T08:19:37.744Z,18.20
2018-08-30T08:22:06.837Z,18.10
2018-08-30T08:24:35.825Z,18.00
2018-08-30T08:27:04.794Z,17.90
2018-08-30T08:29:33.725Z,17.90
2018-08-30T08:32:02.726Z,18.20
2018-08-30T08:34:31.655Z,18.50
2018-08-30T08:37:01.471Z,18.90
2018-08-30T08:39:30.468Z,19.10
2018-08-30T08:41:59.457Z,19.10
2018-08-30T08:44:28.463Z,19.40
2018-08-30T08:46:57.453Z,19.50
2018-08-30T08:49:26.442Z,19.40
2018-08-30T08:51:55.438Z,19.30
2018-08-30T08:54:24.407Z,19.40
2018-08-30T08:56:53.448Z,19.50
2018-08-30T08:59:22.498Z,19.60
2018-08-30T09:01:51.434Z,19.90
2018-08-30T09:04:20.418Z,20.30
2018-08-30T09:06:49.444Z,20.40
2018-08-30T09:09:18.394Z,20.20
2018-08-30T09:11:47.393Z,20.00
2018-08-30T09:14:16.374Z,20.00
2018-08-30T09:16:45.373Z,20.30
2018-08-30T09:19:14.285Z,20.50
2018-08-30T09:21:43.281Z,20.30
2018-08-30T09:24:12.245Z,20.00
2018-08-30T09:26:41.287Z,19.80
2018-08-30T09:29:10.237Z,19.60
2018-08-30T09:31:39.233Z,19.60
2018-08-30T09:34:08.255Z,19.80
2018-08-30T09:36:37.221Z,19.80
2018-08-30T09:39:07.543Z,19.60
2018-08-30T09:41:37.632Z,19.40
2018-08-30T09:44:06.721Z,19.40
2018-08-30T09:46:35.665Z,19.30
2018-08-30T09:49:04.856Z,19.40
2018-08-30T09:51:33.994Z,19.60
2018-08-30T09:54:02.942Z,20.10
2018-08-30T09:56:31.931Z,20.50
2018-08-30T09:59:00.921Z,20.50
2018-08-30T10:01:35.229Z,20.50
2018-08-30T10:04:04.224Z,20.60
2018-08-30T10:06:33.224Z,20.80
2018-08-30T10:09:02.257Z,21.20
2018-08-30T10:11:31.227Z,21.40
2018-08-30T10:14:00.200Z,21.40
2018-08-30T10:16:29.270Z,21.20
2018-08-30T10:18:58.306Z,21.20
2018-08-30T10:21:27.453Z,21.10
2018-08-30T10:23:56.345Z,21.20
2018-08-30T10:26:25.363Z,21.10
2018-08-30T10:28:54.297Z,20.70
2018-08-30T10:31:23.542Z,20.60
2018-08-30T10:33:52.436Z,20.60
2018-08-30T10:36:21.448Z,20.60
2018-08-30T10:38:50.460Z,20.60
2018-08-30T10:41:19.487Z,20.90
2018-08-30T10:43:49.473Z,21.00
2018-08-30T10:46:18.460Z,21.20
2018-08-30T10:48:47.471Z,21.30
2018-08-30T10:51:16.382Z,21.50
2018-08-30T10:53:45.334Z,21.70
2018-08-30T10:56:14.393Z,21.80
2018-08-30T10:58:43.378Z,21.90
2018-08-30T11:01:12.450Z,22.30
2018-08-30T11:03:41.418Z,22.60
2018-08-30T11:06:10.398Z,22.80
2018-08-30T11:08:39.398Z,22.70
2018-08-30T11:11:08.367Z,22.50
2018-08-30T11:13:37.455Z,22.30
2018-08-30T11:16:06.378Z,22.10
2018-08-30T11:18:35.365Z,22.00
2018-08-30T11:21:04.349Z,22.30
2018-08-30T11:23:33.410Z,22.50
2018-08-30T11:26:02.365Z,22.70
2018-08-30T11:28:31.377Z,22.90
2018-08-30T11:31:00.338Z,23.10
2018-08-30T11:33:29.337Z,23.30
2018-08-30T11:35:58.289Z,23.30
2018-08-30T11:38:27.547Z,23.10
2018-08-30T11:40:56.478Z,22.80
2018-08-30T11:43:25.492Z,22.80
2018-08-30T11:45:54.461Z,23.00
2018-08-30T11:48:23.762Z,23.10
2018-08-30T11:50:53.698Z,23.20
2018-08-30T11:53:22.699Z,23.20
2018-08-30T11:55:51.695Z,22.90
2018-08-30T11:58:20.693Z,22.60
2018-08-30T12:00:49.993Z,22.20
2018-08-30T12:03:20.130Z,22.00
2018-08-30T12:05:49.915Z,22.00
2018-08-30T12:08:18.926Z,22.00
2018-08-30T12:10:47.903Z,22.00
2018-08-30T12:13:16.853Z,21.90
2018-08-30T12:15:45.798Z,21.80
2018-08-30T12:18:14.916Z,21.50
2018-08-30T12:20:44.170Z,21.30
2018-08-30T12:23:13.023Z,21.30
2018-08-30T12:25:41.994Z,21.30
2018-08-30T12:28:11.039Z,21.20
2018-08-30T12:30:40.095Z,21.30
2018-08-30T12:33:09.125Z,21.20
2018-08-30T12:35:38.089Z,21.40
2018-08-30T12:38:07.165Z,21.70
2018-08-30T12:40:36.026Z,22.10
2018-08-30T12:43:05.371Z,22.60
2018-08-30T12:45:34.425Z,22.80
2018-08-30T12:48:03.532Z,23.00
2018-08-30T12:50:32.551Z,23.10
2018-08-30T12:53:01.494Z,23.40
2018-08-30T12:55:30.547Z,23.40
2018-08-30T12:57:59.494Z,23.50
2018-08-30T13:00:28.547Z,23.80
2018-08-30T13:02:57.565Z,23.70
2018-08-30T13:05:26.728Z,23.30
2018-08-30T13:07:55.582Z,23.00
2018-08-30T13:10:24.623Z,22.90
2018-08-30T13:12:53.567Z,22.80
2018-08-30T13:15:22.910Z,23.00
2018-08-30T13:17:51.559Z,23.10
2018-08-30T13:20:20.567Z,23.40
2018-08-30T13:22:49.545Z,23.50
2018-08-30T13:25:18.590Z,23.50
2018-08-30T13:27:47.585Z,23.50
2018-08-30T13:30:16.544Z,23.20
2018-08-30T13:32:45.483Z,23.20
2018-08-30T13:35:14.693Z,23.20
2018-08-30T13:37:43.528Z,23.10
2018-08-30T13:40:12.417Z,23.10
2018-08-30T13:42:41.376Z,23.20
2018-08-30T13:45:10.463Z,23.30
2018-08-30T13:47:39.437Z,23.20
2018-08-30T13:50:08.666Z,23.20
2018-08-30T13:52:37.601Z,23.10
2018-08-30T13:55:06.730Z,22.80
2018-08-30T13:57:35.746Z,22.80
2018-08-30T14:00:05.171Z,22.80
2018-08-30T14:02:33.760Z,23.10
2018-08-30T14:05:03.126Z,23.20
2018-08-30T14:07:31.715Z,23.30
2018-08-30T14:10:00.745Z,23.40
2018-08-30T14:12:29.579Z,23.40
2018-08-30T14:14:58.600Z,23.10
2018-08-30T14:17:27.291Z,23.00
2018-08-30T14:19:56.240Z,23.20
2018-08-30T14:22:25.238Z,23.30
2018-08-30T14:24:54.231Z,23.40
2018-08-30T14:27:23.245Z,23.50
2018-08-30T14:29:52.156Z,23.40
2018-08-30T14:32:21.160Z,23.40
2018-08-30T14:34:50.191Z,23.40
2018-08-30T14:37:19.182Z,23.20
2018-08-30T14:39:48.138Z,23.00
2018-08-30T14:42:17.125Z,22.80
2018-08-30T14:44:46.125Z,22.70
2018-08-30T14:47:15.247Z,22.40
2018-08-30T14:49:44.135Z,22.30
2018-08-30T14:52:13.166Z,22.30
2018-08-30T14:54:42.348Z,22.30
2018-08-30T14:57:12.309Z,22.40
2018-08-30T14:59:41.234Z,22.60
2018-08-30T15:02:10.247Z,22.70
2018-08-30T15:04:39.221Z,22.90
2018-08-30T15:07:08.237Z,22.80
2018-08-30T15:09:37.308Z,22.80
2018-08-30T15:12:06.325Z,22.90
2018-08-30T15:14:35.354Z,22.70
2018-08-30T15:17:04.454Z,22.70
2018-08-30T15:19:33.414Z,22.70
2018-08-30T15:22:02.509Z,22.70
2018-08-30T15:24:31.668Z,22.60
2018-08-30T15:27:00.703Z,22.50
2018-08-30T15:29:30.687Z,22.50
2018-08-30T15:31:59.789Z,22.30
2018-08-30T15:34:28.880Z,22.40
2018-08-30T15:36:57.861Z,22.30
2018-08-30T15:39:26.885Z,22.20
2018-08-30T15:41:56.062Z,22.30
2018-08-30T15:44:25.168Z,22.30
2018-08-30T15:46:54.434Z,22.20
2018-08-30T15:49:23.501Z,22.10
2018-08-30T15:51:52.537Z,22.10
2018-08-30T15:54:21.551Z,22.00
2018-08-30T15:56:50.584Z,22.00
2018-08-30T15:59:19.636Z,21.90
2018-08-30T16:01:48.546Z,21.80
2018-08-30T16:04:17.513Z,21.80
2018-08-30T16:06:46.721Z,21.80
2018-08-30T16:09:15.513Z,21.80
2018-08-30T16:11:44.501Z,21.80
2018-08-30T16:14:13.494Z,21.90
2018-08-30T16:16:42.548Z,22.00
2018-08-30T16:19:11.745Z,21.90
2018-08-30T16:21:40.772Z,21.90
2018-08-30T16:24:09.934Z,21.80
2018-08-30T16:26:38.877Z,21.70
2018-08-30T16:29:07.923Z,21.50
2018-08-30T16:31:37.055Z,21.50
2018-08-30T16:34:06.114Z,21.30
2018-08-30T16:36:35.134Z,21.40
2018-08-30T16:39:05.782Z,21.30
2018-08-30T16:41:34.762Z,21.20
2018-08-30T16:44:03.810Z,21.10
2018-08-30T16:46:32.754Z,21.00
2018-08-30T16:49:01.810Z,20.90
2018-08-30T16:51:30.811Z,20.70
2018-08-30T16:53:59.738Z,20.60
2018-08-30T16:56:28.873Z,20.60
2018-08-30T16:58:57.812Z,20.50
2018-08-30T17:01:26.862Z,20.50
2018-08-30T17:03:56.850Z,20.50
2018-08-30T17:06:25.949Z,20.40
2018-08-30T17:08:54.846Z,20.40
2018-08-30T17:11:23.837Z,20.30
2018-08-30T17:13:52.817Z,20.20
2018-08-30T17:16:21.721Z,20.20
2018-08-30T17:18:52.374Z,20.30
2018-08-30T17:21:21.322Z,20.30
2018-08-30T17:23:50.326Z,20.40
2018-08-30T17:26:19.321Z,20.30
2018-08-30T17:28:48.300Z,20.20
2018-08-30T17:31:17.647Z,20.20
2018-08-30T17:33:46.529Z,20.20
2018-08-30T17:36:15.503Z,20.20
2018-08-30T17:38:44.817Z,20.10
2018-08-30T17:41:13.774Z,20.10
2018-08-30T17:43:42.813Z,20.10
2018-08-30T17:46:11.983Z,20.00
2018-08-30T17:48:40.967Z,20.00
2018-08-30T17:51:09.986Z,19.80
2018-08-30T17:53:38.976Z,19.70
2018-08-30T17:56:08.059Z,19.60
2018-08-30T17:58:36.977Z,19.60
2018-08-30T18:01:05.980Z,19.50
2018-08-30T18:03:34.943Z,19.40
2018-08-30T18:06:03.991Z,19.40
2018-08-30T18:08:32.914Z,19.20
2018-08-30T18:11:01.928Z,19.00
2018-08-30T18:13:30.911Z,19.00
2018-08-30T18:15:59.918Z,18.70
2018-08-30T18:18:28.918Z,18.70
2018-08-30T18:20:57.897Z,18.60
2018-08-30T18:23:26.892Z,18.60
2018-08-30T18:25:55.871Z,18.50
2018-08-30T18:28:24.879Z,18.40
2018-08-30T18:30:53.877Z,18.40
2018-08-30T18:33:22.854Z,18.30
2018-08-30T18:35:52.902Z,18.20
2018-08-30T18:38:21.879Z,18.10
2018-08-30T18:40:50.874Z,18.10
2018-08-30T18:43:20.195Z,18.10
2018-08-30T18:45:49.471Z,18.10
2018-08-30T18:48:18.446Z,18.00
2018-08-30T18:50:47.468Z,17.90
2018-08-30T18:53:16.416Z,17.90
2018-08-30T18:55:45.440Z,17.90
2018-08-30T18:58:14.920Z,17.80
2018-08-30T19:00:44.032Z,17.70
2018-08-30T19:03:13.037Z,17.60
2018-08-30T19:05:42.044Z,17.60
2018-08-30T19:08:10.997Z,17.50
2018-08-30T19:10:39.906Z,17.50
2018-08-30T19:13:08.969Z,17.40
2018-08-30T19:15:43.095Z,17.30
2018-08-30T19:18:17.450Z,17.40
2018-08-30T19:20:46.369Z,17.30
2018-08-30T19:23:15.315Z,17.30
2018-08-30T19:25:44.342Z,17.30
2018-08-30T19:28:13.273Z,17.20
2018-08-30T19:30:42.625Z,17.10
2018-08-30T19:33:11.597Z,17.00
2018-08-30T19:35:45.921Z,17.00
2018-08-30T19:38:14.905Z,16.90
2018-08-30T19:40:49.332Z,16.90
2018-08-30T19:43:18.331Z,16.90
2018-08-30T19:45:47.322Z,16.80
2018-08-30T19:48:16.250Z,16.80
2018-08-30T19:50:45.197Z,16.80
2018-08-30T19:53:14.212Z,16.70
2018-08-30T19:55:43.189Z,16.60
2018-08-30T19:58:12.123Z,16.60
2018-08-30T20:00:41.070Z,16.50
2018-08-30T20:03:10.099Z,16.50
2018-08-30T20:05:39.013Z,16.50
2018-08-30T20:08:07.938Z,16.40
2018-08-30T20:10:36.853Z,16.40
2018-08-30T20:13:05.798Z,16.30
2018-08-30T20:15:34.769Z,16.30
2018-08-30T20:18:04.841Z,16.30
2018-08-30T20:20:34.087Z,16.20
2018-08-30T20:23:03.096Z,16.10
2018-08-30T20:25:32.037Z,16.10
2018-08-30T20:28:01.146Z,16.10
2018-08-30T20:30:30.142Z,16.10
2018-08-30T20:32:59.074Z,16.00
2018-08-30T20:35:28.039Z,15.90
2018-08-30T20:37:57.017Z,15.80
2018-08-30T20:40:26.048Z,15.80
2018-08-30T20:42:55.014Z,15.80
2018-08-30T20:45:24.025Z,15.70
2018-08-30T20:47:53.009Z,15.70
2018-08-30T20:50:21.972Z,15.60
2018-08-30T20:52:50.983Z,15.60
2018-08-30T20:55:19.982Z,15.50
2018-08-30T20:57:48.985Z,15.50
2018-08-30T21:00:18.050Z,15.40
2018-08-30T21:02:46.977Z,15.30
2018-08-30T21:05:15.905Z,15.30
2018-08-30T21:07:45.039Z,15.30
2018-08-30T21:10:13.951Z,15.30
2018-08-30T21:12:42.920Z,15.20
2018-08-30T21:15:11.858Z,15.20
2018-08-30T21:17:40.904Z,15.10
2018-08-30T21:20:09.890Z,14.90
2018-08-30T21:22:38.881Z,14.90
2018-08-30T21:25:07.931Z,14.80
2018-08-30T21:27:36.942Z,14.70
2018-08-30T21:30:05.921Z,14.60
2018-08-30T21:32:34.940Z,14.60
2018-08-30T21:35:04.056Z,14.50
2018-08-30T21:37:33.031Z,14.40
2018-08-30T21:40:02.066Z,14.40
2018-08-30T21:42:31.063Z,14.30
2018-08-30T21:45:00.021Z,14.20
2018-08-30T21:47:29.077Z,14.10
2018-08-30T21:49:58.009Z,14.00
2018-08-30T21:52:27.197Z,13.90
2018-08-30T21:54:56.233Z,13.90
2018-08-30T21:57:25.190Z,13.80
2018-08-30T21:59:54.199Z,13.80
2018-08-30T22:02:23.251Z,13.70
2018-08-30T22:04:52.465Z,13.60
2018-08-30T22:07:21.513Z,13.60
2018-08-30T22:09:50.486Z,13.50
2018-08-30T22:12:19.553Z,13.50
2018-08-30T22:14:48.510Z,13.40
2018-08-30T22:17:17.429Z,13.30
2018-08-30T22:19:46.361Z,13.30
2018-08-30T22:22:15.290Z,13.20
2018-08-30T22:24:44.219Z,13.20
2018-08-30T22:27:13.147Z,13.20
2018-08-30T22:29:42.050Z,13.10
2018-08-30T22:32:10.972Z,13.00
2018-08-30T22:34:39.918Z,13.00
2018-08-30T22:37:08.877Z,13.00
2018-08-30T22:39:37.950Z,12.90
2018-08-30T22:42:06.895Z,12.90
2018-08-30T22:44:35.823Z,12.90
2018-08-30T22:47:04.783Z,12.90
2018-08-30T22:49:33.777Z,12.80
2018-08-30T22:52:03.789Z,12.80
2018-08-30T22:54:32.719Z,12.70
2018-08-30T22:57:01.688Z,12.70
2018-08-30T22:59:30.718Z,12.60
2018-08-30T23:01:59.662Z,12.60
2018-08-30T23:04:28.657Z,12.60
2018-08-30T23:06:57.956Z,12.50
2018-08-30T23:09:26.879Z,12.50
2018-08-30T23:11:55.825Z,12.50
2018-08-30T23:14:24.765Z,12.40
2018-08-30T23:16:53.864Z,12.40
2018-08-30T23:19:22.805Z,12.40
2018-08-30T23:21:51.738Z,12.30
2018-08-30T23:24:20.713Z,12.30
2018-08-30T23:26:49.631Z,12.20
2018-08-30T23:29:18.598Z,12.20
2018-08-30T23:31:47.499Z,12.10
2018-08-30T23:34:16.453Z,12.10
2018-08-30T23:36:45.482Z,12.10
2018-08-30T23:39:14.449Z,12.00
2018-08-30T23:41:43.395Z,12.00
2018-08-30T23:44:12.359Z,12.00
2018-08-30T23:46:41.357Z,12.00
2018-08-30T23:49:10.365Z,11.90
2018-08-30T23:51:39.354Z,11.90
2018-08-30T23:54:08.458Z,11.80
2018-08-30T23:56:37.355Z,11.80
2018-08-30T23:59:17.593Z,11.80
